sensor_id;sensor_type;location;lat;lon;timestamp;pressure;altitude;pressure_sealevel;temperature;humidity
42591;BME280;28218;53.342;-6.216;2023-02-17T00:00:05;101180.94;;;13.01;100.00
42591;BME280;28218;53.342;-6.216;2023-02-17T00:02:34;101174.19;;;12.99;100.00
42591;BME280;28218;53.342;-6.216;2023-02-17T00:05:03;101180.09;;;13.01;100.00
42591;BME280;28218;53.342;-6.216;2023-02-17T00:07:32;101173.00;;;13.01;100.00
42591;BME280;28218;53.342;-6.216;2023-02-17T00:10:00;101179.91;;;13.02;100.00
42591;BME280;28218;53.342;-6.216;2023-02-17T00:12:29;101179.91;;;13.02;100.00
42591;BME280;28218;53.342;-6.216;2023-02-17T00:14:57;101166.88;;;13.01;100.00
42591;BME280;28218;53.342;-6.216;2023-02-17T00:17:25;101163.41;;;13.00;100.00
42591;BME280;28218;53.342;-6.216;2023-02-17T00:19:54;101159.56;;;13.03;100.00
42591;BME280;28218;53.342;-6.216;2023-02-17T00:22:23;101144.56;;;13.03;100.00
42591;BME280;28218;53.342;-6.216;2023-02-17T00:24:51;101153.66;;;13.01;100.00
42591;BME280;28218;53.342;-6.216;2023-02-17T00:27:19;101150.53;;;12.97;100.00
42591;BME280;28218;53.342;-6.216;2023-02-17T00:29:47;101131.84;;;12.99;100.00
42591;BME280;28218;53.342;-6.216;2023-02-17T00:32:15;101128.53;;;12.97;100.00
42591;BME280;28218;53.342;-6.216;2023-02-17T00:34:44;101120.78;;;12.95;100.00
42591;BME280;28218;53.342;-6.216;2023-02-17T00:37:13;101110.84;;;12.97;100.00
42591;BME280;28218;53.342;-6.216;2023-02-17T00:39:42;101118.78;;;12.97;100.00
42591;BME280;28218;53.342;-6.216;2023-02-17T00:42:10;101131.84;;;12.99;100.00
42591;BME280;28218;53.342;-6.216;2023-02-17T00:44:38;101129.03;;;13.00;100.00
42591;BME280;28218;53.342;-6.216;2023-02-17T00:47:07;101128.19;;;13.00;100.00
42591;BME280;28218;53.342;-6.216;2023-02-17T00:49:35;101143.72;;;13.03;100.00
42591;BME280;28218;53.342;-6.216;2023-02-17T00:52:03;101142.72;;;13.04;100.00
42591;BME280;28218;53.342;-6.216;2023-02-17T00:54:33;101132.31;;;13.02;100.00
42591;BME280;28218;53.342;-6.216;2023-02-17T00:57:01;101133.31;;;13.01;100.00
42591;BME280;28218;53.342;-6.216;2023-02-17T00:59:29;101128.03;;;13.01;100.00
42591;BME280;28218;53.342;-6.216;2023-02-17T01:01:58;101133.50;;;13.00;100.00
42591;BME280;28218;53.342;-6.216;2023-02-17T01:04:26;101126.03;;;13.03;100.00
42591;BME280;28218;53.342;-6.216;2023-02-17T01:06:54;101136.63;;;13.03;100.00
42591;BME280;28218;53.342;-6.216;2023-02-17T01:09:22;101137.25;;;13.05;100.00
42591;BME280;28218;53.342;-6.216;2023-02-17T01:11:52;101132.78;;;13.06;100.00
42591;BME280;28218;53.342;-6.216;2023-02-17T01:14:20;101131.97;;;13.05;100.00
42591;BME280;28218;53.342;-6.216;2023-02-17T01:16:48;101130.97;;;13.07;100.00
42591;BME280;28218;53.342;-6.216;2023-02-17T01:19:18;101130.47;;;13.03;100.00
42591;BME280;28218;53.342;-6.216;2023-02-17T01:21:46;101161.25;;;13.04;100.00
42591;BME280;28218;53.342;-6.216;2023-02-17T01:24:14;101138.41;;;13.03;100.00
42591;BME280;28218;53.342;-6.216;2023-02-17T01:26:42;101135.63;;;13.04;100.00
42591;BME280;28218;53.342;-6.216;2023-02-17T01:29:12;101124.84;;;13.06;100.00
42591;BME280;28218;53.342;-6.216;2023-02-17T01:31:40;101132.59;;;13.08;100.00
42591;BME280;28218;53.342;-6.216;2023-02-17T01:34:09;101132.59;;;13.08;100.00
42591;BME280;28218;53.342;-6.216;2023-02-17T01:36:37;101111.81;;;13.04;100.00
42591;BME280;28218;53.342;-6.216;2023-02-17T01:39:06;101125.03;;;13.04;100.00
42591;BME280;28218;53.342;-6.216;2023-02-17T01:41:34;101108.34;;;13.04;100.00
42591;BME280;28218;53.342;-6.216;2023-02-17T01:44:19;101104.03;;;13.03;100.00
42591;BME280;28218;53.342;-6.216;2023-02-17T01:46:50;101110.16;;;13.03;100.00
42591;BME280;28218;53.342;-6.216;2023-02-17T01:49:28;101105.84;;;13.02;100.00
42591;BME280;28218;53.342;-6.216;2023-02-17T01:52:02;101101.22;;;13.04;100.00
42591;BME280;28218;53.342;-6.216;2023-02-17T01:54:36;101103.88;;;13.04;100.00
42591;BME280;28218;53.342;-6.216;2023-02-17T01:57:05;101094.59;;;13.09;100.00
42591;BME280;28218;53.342;-6.216;2023-02-17T01:59:34;101085.47;;;13.11;100.00
42591;BME280;28218;53.342;-6.216;2023-02-17T02:02:04;101083.63;;;13.12;100.00
42591;BME280;28218;53.342;-6.216;2023-02-17T02:04:35;101102.00;;;13.13;100.00
42591;BME280;28218;53.342;-6.216;2023-02-17T02:07:10;101090.59;;;13.13;100.00
42591;BME280;28218;53.342;-6.216;2023-02-17T02:09:46;101055.00;;;13.15;100.00
42591;BME280;28218;53.342;-6.216;2023-02-17T02:12:17;101059.81;;;13.12;100.00
42591;BME280;28218;53.342;-6.216;2023-02-17T02:14:48;101063.47;;;13.11;100.00
42591;BME280;28218;53.342;-6.216;2023-02-17T02:17:26;101056.53;;;13.10;100.00
42591;BME280;28218;53.342;-6.216;2023-02-17T02:20:23;101054.72;;;13.10;100.00
42591;BME280;28218;53.342;-6.216;2023-02-17T02:23:10;101051.06;;;13.11;100.00
42591;BME280;28218;53.342;-6.216;2023-02-17T02:29:17;101046.25;;;13.15;100.00
42591;BME280;28218;53.342;-6.216;2023-02-17T02:32:02;101053.56;;;13.13;100.00
42591;BME280;28218;53.342;-6.216;2023-02-17T02:34:44;101027.09;;;13.13;100.00
42591;BME280;28218;53.342;-6.216;2023-02-17T02:37:18;101029.91;;;13.11;100.00
42591;BME280;28218;53.342;-6.216;2023-02-17T02:39:50;101037.50;;;13.14;100.00
42591;BME280;28218;53.342;-6.216;2023-02-17T02:42:22;101022.44;;;13.15;100.00
42591;BME280;28218;53.342;-6.216;2023-02-17T02:44:51;101030.72;;;13.12;100.00
42591;BME280;28218;53.342;-6.216;2023-02-17T02:47:42;101013.22;;;13.11;100.00
42591;BME280;28218;53.342;-6.216;2023-02-17T02:50:13;101016.53;;;13.13;100.00
42591;BME280;28218;53.342;-6.216;2023-02-17T02:55:42;101004.66;;;13.09;100.00
42591;BME280;28218;53.342;-6.216;2023-02-17T02:58:17;101014.84;;;13.12;100.00
42591;BME280;28218;53.342;-6.216;2023-02-17T03:00:54;100993.69;;;13.12;100.00
42591;BME280;28218;53.342;-6.216;2023-02-17T03:03:28;101001.00;;;13.10;100.00
42591;BME280;28218;53.342;-6.216;2023-02-17T03:06:07;100989.22;;;13.12;100.00
42591;BME280;28218;53.342;-6.216;2023-02-17T03:08:41;100983.94;;;13.12;100.00
42591;BME280;28218;53.342;-6.216;2023-02-17T03:11:12;100986.75;;;13.11;100.00
42591;BME280;28218;53.342;-6.216;2023-02-17T03:13:41;100993.06;;;13.10;100.00
42591;BME280;28218;53.342;-6.216;2023-02-17T03:16:09;100977.81;;;13.12;100.00
42591;BME280;28218;53.342;-6.216;2023-02-17T03:18:40;100981.47;;;13.11;100.00
42591;BME280;28218;53.342;-6.216;2023-02-17T03:21:13;100973.34;;;13.12;100.00
42591;BME280;28218;53.342;-6.216;2023-02-17T03:23:42;100961.59;;;13.15;100.00
42591;BME280;28218;53.342;-6.216;2023-02-17T03:26:11;100975.16;;;13.12;100.00
42591;BME280;28218;53.342;-6.216;2023-02-17T03:28:39;100953.03;;;13.13;100.00
42591;BME280;28218;53.342;-6.216;2023-02-17T03:31:07;100953.66;;;13.15;100.00
42591;BME280;28218;53.342;-6.216;2023-02-17T03:33:35;100960.59;;;13.16;100.00
42591;BME280;28218;53.342;-6.216;2023-02-17T03:36:04;100955.47;;;13.14;100.00
42591;BME280;28218;53.342;-6.216;2023-02-17T03:38:34;100962.59;;;13.14;100.00
42591;BME280;28218;53.342;-6.216;2023-02-17T03:41:03;100963.03;;;13.17;100.00
42591;BME280;28218;53.342;-6.216;2023-02-17T03:43:31;100967.34;;;13.18;100.00
42591;BME280;28218;53.342;-6.216;2023-02-17T03:45:59;100979.78;;;13.18;100.00
42591;BME280;28218;53.342;-6.216;2023-02-17T03:48:28;100974.47;;;13.18;100.00
42591;BME280;28218;53.342;-6.216;2023-02-17T03:50:56;100988.34;;;13.20;100.00
42591;BME280;28218;53.342;-6.216;2023-02-17T03:53:24;100986.50;;;13.20;100.00
42591;BME280;28218;53.342;-6.216;2023-02-17T03:55:54;100982.03;;;13.21;100.00
42591;BME280;28218;53.342;-6.216;2023-02-17T03:58:22;101001.56;;;13.20;100.00
42591;BME280;28218;53.342;-6.216;2023-02-17T04:00:50;100989.34;;;13.19;100.00
42591;BME280;28218;53.342;-6.216;2023-02-17T04:03:18;101018.59;;;13.17;100.00
42591;BME280;28218;53.342;-6.216;2023-02-17T04:05:46;101005.75;;;13.14;100.00
42591;BME280;28218;53.342;-6.216;2023-02-17T04:08:14;101010.66;;;13.17;100.00
42591;BME280;28218;53.342;-6.216;2023-02-17T04:10:42;101014.50;;;13.15;100.00
42591;BME280;28218;53.342;-6.216;2023-02-17T04:13:12;101013.03;;;13.12;100.00
42591;BME280;28218;53.342;-6.216;2023-02-17T04:15:40;101024.81;;;13.10;100.00
42591;BME280;28218;53.342;-6.216;2023-02-17T04:18:08;101018.69;;;13.09;100.00
42591;BME280;28218;53.342;-6.216;2023-02-17T04:20:37;101025.81;;;13.09;100.00
42591;BME280;28218;53.342;-6.216;2023-02-17T04:23:05;101055.06;;;13.07;100.00
42591;BME280;28218;53.342;-6.216;2023-02-17T04:25:33;101031.44;;;13.05;100.00
42591;BME280;28218;53.342;-6.216;2023-02-17T04:28:02;101047.66;;;13.02;100.00
42591;BME280;28218;53.342;-6.216;2023-02-17T04:30:33;101043.56;;;13.00;100.00
42591;BME280;28218;53.342;-6.216;2023-02-17T04:33:02;101034.13;;;12.97;100.00
42591;BME280;28218;53.342;-6.216;2023-02-17T04:35:31;101047.22;;;12.99;100.00
42591;BME280;28218;53.342;-6.216;2023-02-17T04:37:59;101036.25;;;13.02;100.00
42591;BME280;28218;53.342;-6.216;2023-02-17T04:40:27;101032.97;;;13.00;100.00
42591;BME280;28218;53.342;-6.216;2023-02-17T04:42:55;101034.81;;;12.99;100.00
42591;BME280;28218;53.342;-6.216;2023-02-17T04:45:23;101019.09;;;12.98;100.00
42591;BME280;28218;53.342;-6.216;2023-02-17T04:47:53;101047.53;;;12.96;100.00
42591;BME280;28218;53.342;-6.216;2023-02-17T04:50:21;101020.28;;;12.95;100.00
42591;BME280;28218;53.342;-6.216;2023-02-17T04:52:49;101041.78;;;12.92;100.00
42591;BME280;28218;53.342;-6.216;2023-02-17T04:55:18;101029.91;;;12.88;100.00
42591;BME280;28218;53.342;-6.216;2023-02-17T04:57:46;101038.84;;;12.87;100.00
42591;BME280;28218;53.342;-6.216;2023-02-17T05:00:14;101043.50;;;12.85;100.00
42591;BME280;28218;53.342;-6.216;2023-02-17T05:02:43;101021.03;;;12.81;100.00
42591;BME280;28218;53.342;-6.216;2023-02-17T05:05:14;101022.19;;;12.78;100.00
42591;BME280;28218;53.342;-6.216;2023-02-17T05:07:45;101017.56;;;12.81;100.00
42591;BME280;28218;53.342;-6.216;2023-02-17T05:10:14;101029.59;;;12.83;100.00
42591;BME280;28218;53.342;-6.216;2023-02-17T05:12:43;101006.81;;;12.82;100.00
42591;BME280;28218;53.342;-6.216;2023-02-17T05:15:11;101007.00;;;12.81;100.00
42591;BME280;28218;53.342;-6.216;2023-02-17T05:17:40;100996.56;;;12.79;100.00
42591;BME280;28218;53.342;-6.216;2023-02-17T05:20:09;100996.56;;;12.79;100.00
42591;BME280;28218;53.342;-6.216;2023-02-17T05:22:39;101004.81;;;12.84;100.00
42591;BME280;28218;53.342;-6.216;2023-02-17T05:25:07;101005.66;;;12.85;100.00
42591;BME280;28218;53.342;-6.216;2023-02-17T05:27:35;101009.13;;;12.85;100.00
42591;BME280;28218;53.342;-6.216;2023-02-17T05:30:05;101013.06;;;12.89;100.00
42591;BME280;28218;53.342;-6.216;2023-02-17T05:32:33;101009.56;;;12.89;100.00
42591;BME280;28218;53.342;-6.216;2023-02-17T05:35:01;101015.69;;;12.89;100.00
42591;BME280;28218;53.342;-6.216;2023-02-17T05:37:29;101011.38;;;12.88;100.00
42591;BME280;28218;53.342;-6.216;2023-02-17T05:39:59;101020.31;;;12.87;100.00
42591;BME280;28218;53.342;-6.216;2023-02-17T05:42:28;101024.97;;;12.85;100.00
42591;BME280;28218;53.342;-6.216;2023-02-17T05:44:56;101016.03;;;12.86;100.00
42591;BME280;28218;53.342;-6.216;2023-02-17T05:47:24;101021.66;;;12.83;100.00
42591;BME280;28218;53.342;-6.216;2023-02-17T05:49:53;101020.50;;;12.86;100.00
42591;BME280;28218;53.342;-6.216;2023-02-17T05:52:21;101034.25;;;12.81;100.00
42591;BME280;28218;53.342;-6.216;2023-02-17T05:54:49;101012.44;;;12.79;100.00
42591;BME280;28218;53.342;-6.216;2023-02-17T05:57:19;101026.03;;;12.76;100.00
42591;BME280;28218;53.342;-6.216;2023-02-17T05:59:47;101030.13;;;12.78;100.00
42591;BME280;28218;53.342;-6.216;2023-02-17T06:02:16;101014.09;;;12.80;100.00
42591;BME280;28218;53.342;-6.216;2023-02-17T06:04:44;101024.84;;;12.78;100.00
42591;BME280;28218;53.342;-6.216;2023-02-17T06:07:16;101009.97;;;12.77;100.00
42591;BME280;28218;53.342;-6.216;2023-02-17T06:09:44;101026.03;;;12.76;100.00
42591;BME280;28218;53.342;-6.216;2023-02-17T06:12:13;101016.63;;;12.73;100.00
42591;BME280;28218;53.342;-6.216;2023-02-17T06:14:44;101022.72;;;12.74;100.00
42591;BME280;28218;53.342;-6.216;2023-02-17T06:17:12;101022.41;;;12.69;100.00
42591;BME280;28218;53.342;-6.216;2023-02-17T06:19:41;101010.84;;;12.70;100.00
42591;BME280;28218;53.342;-6.216;2023-02-17T06:22:09;101042.94;;;12.67;100.00
42591;BME280;28218;53.342;-6.216;2023-02-17T06:24:37;101049.88;;;12.68;100.00
42591;BME280;28218;53.342;-6.216;2023-02-17T06:27:05;101067.56;;;12.67;100.00
42591;BME280;28218;53.342;-6.216;2023-02-17T06:29:33;101054.50;;;12.66;100.00
42591;BME280;28218;53.342;-6.216;2023-02-17T06:32:03;101062.06;;;12.69;100.00
42591;BME280;28218;53.342;-6.216;2023-02-17T06:34:32;101095.13;;;12.73;100.00
42591;BME280;28218;53.342;-6.216;2023-02-17T06:37:00;101120.56;;;12.74;100.00
42591;BME280;28218;53.342;-6.216;2023-02-17T06:39:28;101112.63;;;12.74;100.00
42591;BME280;28218;53.342;-6.216;2023-02-17T06:41:56;101127.84;;;12.72;100.00
42591;BME280;28218;53.342;-6.216;2023-02-17T06:44:25;101136.59;;;12.72;100.00
42591;BME280;28218;53.342;-6.216;2023-02-17T06:46:56;101153.97;;;12.67;100.00
42591;BME280;28218;53.342;-6.216;2023-02-17T06:49:26;101124.59;;;12.62;100.00
42591;BME280;28218;53.342;-6.216;2023-02-17T06:51:54;101141.28;;;12.54;100.00
42591;BME280;28218;53.342;-6.216;2023-02-17T06:54:23;101156.34;;;12.45;100.00
42591;BME280;28218;53.342;-6.216;2023-02-17T06:56:51;101155.34;;;12.46;100.00
42591;BME280;28218;53.342;-6.216;2023-02-17T06:59:19;101164.47;;;12.44;100.00
42591;BME280;28218;53.342;-6.216;2023-02-17T07:01:47;101171.56;;;12.43;100.00
42591;BME280;28218;53.342;-6.216;2023-02-17T07:04:16;101175.03;;;12.44;100.00
42591;BME280;28218;53.342;-6.216;2023-02-17T07:06:46;101196.50;;;12.41;100.00
42591;BME280;28218;53.342;-6.216;2023-02-17T07:09:14;101200.97;;;12.40;100.00
42591;BME280;28218;53.342;-6.216;2023-02-17T07:11:42;101191.22;;;12.41;100.00
42591;BME280;28218;53.342;-6.216;2023-02-17T07:14:11;101211.34;;;12.42;100.00
42591;BME280;28218;53.342;-6.216;2023-02-17T07:16:39;101211.53;;;12.40;100.00
42591;BME280;28218;53.342;-6.216;2023-02-17T07:19:07;101214.00;;;12.42;100.00
42591;BME280;28218;53.342;-6.216;2023-02-17T07:21:36;101217.81;;;12.39;100.00
42591;BME280;28218;53.342;-6.216;2023-02-17T07:24:10;101225.56;;;12.33;100.00
42591;BME280;28218;53.342;-6.216;2023-02-17T07:26:39;101216.50;;;12.27;100.00
42591;BME280;28218;53.342;-6.216;2023-02-17T07:29:07;101228.75;;;12.28;100.00
42591;BME280;28218;53.342;-6.216;2023-02-17T07:31:35;101235.34;;;12.24;100.00
42591;BME280;28218;53.342;-6.216;2023-02-17T07:34:04;101242.78;;;12.20;100.00
42591;BME280;28218;53.342;-6.216;2023-02-17T07:36:32;101240.31;;;12.19;100.00
42591;BME280;28218;53.342;-6.216;2023-02-17T07:39:01;101259.75;;;12.18;100.00
42591;BME280;28218;53.342;-6.216;2023-02-17T07:41:31;101260.25;;;12.13;100.00
42591;BME280;28218;53.342;-6.216;2023-02-17T07:43:59;101274.31;;;12.06;100.00
42591;BME280;28218;53.342;-6.216;2023-02-17T07:46:27;101285.19;;;12.02;100.00
42591;BME280;28218;53.342;-6.216;2023-02-17T07:48:55;101287.19;;;12.00;100.00
42591;BME280;28218;53.342;-6.216;2023-02-17T07:51:24;101290.78;;;11.99;100.00
42591;BME280;28218;53.342;-6.216;2023-02-17T07:53:52;101292.97;;;11.96;100.00
42591;BME280;28218;53.342;-6.216;2023-02-17T07:56:21;101288.50;;;11.96;100.00
42591;BME280;28218;53.342;-6.216;2023-02-17T07:58:51;101287.16;;;11.92;100.00
42591;BME280;28218;53.342;-6.216;2023-02-17T08:01:22;101301.03;;;11.94;100.00
42591;BME280;28218;53.342;-6.216;2023-02-17T08:03:51;101312.75;;;11.92;100.00
42591;BME280;28218;53.342;-6.216;2023-02-17T08:06:21;101308.47;;;11.91;100.00
42591;BME280;28218;53.342;-6.216;2023-02-17T08:08:57;101340.81;;;11.93;100.00
42591;BME280;28218;53.342;-6.216;2023-02-17T08:11:42;101334.53;;;11.94;100.00
42591;BME280;28218;53.342;-6.216;2023-02-17T08:14:30;101348.56;;;11.94;100.00
42591;BME280;28218;53.342;-6.216;2023-02-17T08:16:59;101339.97;;;11.92;100.00
42591;BME280;28218;53.342;-6.216;2023-02-17T08:19:27;101351.19;;;11.94;100.00
42591;BME280;28218;53.342;-6.216;2023-02-17T08:22:13;101350.88;;;11.97;100.00
42591;BME280;28218;53.342;-6.216;2023-02-17T08:24:41;101369.19;;;11.99;100.00
42591;BME280;28218;53.342;-6.216;2023-02-17T08:27:09;101362.97;;;12.00;100.00
42591;BME280;28218;53.342;-6.216;2023-02-17T08:29:39;101361.75;;;11.94;100.00
42591;BME280;28218;53.342;-6.216;2023-02-17T08:32:08;101388.03;;;11.96;100.00
42591;BME280;28218;53.342;-6.216;2023-02-17T08:34:36;101418.22;;;11.93;100.00
42591;BME280;28218;53.342;-6.216;2023-02-17T08:37:06;101415.59;;;12.01;100.00
42591;BME280;28218;53.342;-6.216;2023-02-17T08:39:37;101433.28;;;12.01;100.00
42591;BME280;28218;53.342;-6.216;2023-02-17T08:42:05;101438.56;;;12.01;100.00
42591;BME280;28218;53.342;-6.216;2023-02-17T08:44:35;101444.34;;;12.05;100.00
42591;BME280;28218;53.342;-6.216;2023-02-17T08:47:05;101449.63;;;12.05;100.00
42591;BME280;28218;53.342;-6.216;2023-02-17T08:49:34;101452.09;;;12.06;100.00
42591;BME280;28218;53.342;-6.216;2023-02-17T08:52:03;101477.38;;;12.09;100.00
42591;BME280;28218;53.342;-6.216;2023-02-17T08:54:31;101492.72;;;12.13;100.00
42591;BME280;28218;53.342;-6.216;2023-02-17T08:57:00;101499.84;;;12.13;100.00
42591;BME280;28218;53.342;-6.216;2023-02-17T08:59:28;101506.47;;;12.17;100.00
42591;BME280;28218;53.342;-6.216;2023-02-17T09:01:57;101526.94;;;12.23;100.00
42591;BME280;28218;53.342;-6.216;2023-02-17T09:04:27;101528.16;;;12.28;100.00
42591;BME280;28218;53.342;-6.216;2023-02-17T09:06:55;101545.50;;;12.31;100.00
42591;BME280;28218;53.342;-6.216;2023-02-17T09:09:24;101549.63;;;12.34;100.00
42591;BME280;28218;53.342;-6.216;2023-02-17T09:11:55;101558.56;;;12.41;100.00
42591;BME280;28218;53.342;-6.216;2023-02-17T09:14:24;101585.00;;;12.41;100.00
42591;BME280;28218;53.342;-6.216;2023-02-17T09:16:54;101585.22;;;12.47;100.00
42591;BME280;28218;53.342;-6.216;2023-02-17T09:19:22;101594.28;;;12.45;100.00
42591;BME280;28218;53.342;-6.216;2023-02-17T09:21:52;101604.84;;;12.45;100.00
42591;BME280;28218;53.342;-6.216;2023-02-17T09:24:21;101610.31;;;12.43;100.00
42591;BME280;28218;53.342;-6.216;2023-02-17T09:26:51;101619.38;;;12.41;100.00
42591;BME280;28218;53.342;-6.216;2023-02-17T09:29:20;101623.00;;;12.40;100.00
42591;BME280;28218;53.342;-6.216;2023-02-17T09:31:48;101641.19;;;12.43;100.00
42591;BME280;28218;53.342;-6.216;2023-02-17T09:34:16;101644.31;;;12.46;100.00
42591;BME280;28218;53.342;-6.216;2023-02-17T09:36:45;101641.22;;;12.51;100.00
42591;BME280;28218;53.342;-6.216;2023-02-17T09:39:14;101644.38;;;12.54;100.00
42591;BME280;28218;53.342;-6.216;2023-02-17T09:41:45;101637.78;;;12.59;100.00
42591;BME280;28218;53.342;-6.216;2023-02-17T09:44:19;101654.31;;;12.61;100.00
42591;BME280;28218;53.342;-6.216;2023-02-17T09:46:52;101668.38;;;12.61;100.00
42591;BME280;28218;53.342;-6.216;2023-02-17T09:49:33;101674.97;;;12.65;100.00
42591;BME280;28218;53.342;-6.216;2023-02-17T09:52:08;101678.00;;;12.70;100.00
42591;BME280;28218;53.342;-6.216;2023-02-17T09:54:45;101681.31;;;12.72;100.00
42591;BME280;28218;53.342;-6.216;2023-02-17T09:57:17;101702.00;;;12.77;100.00
42591;BME280;28218;53.342;-6.216;2023-02-17T09:59:49;101706.59;;;12.75;100.00
42591;BME280;28218;53.342;-6.216;2023-02-17T10:02:24;101708.94;;;12.78;100.00
42591;BME280;28218;53.342;-6.216;2023-02-17T10:04:56;101712.41;;;12.78;100.00
42591;BME280;28218;53.342;-6.216;2023-02-17T10:07:30;101723.50;;;12.82;100.00
42591;BME280;28218;53.342;-6.216;2023-02-17T10:10:05;101730.44;;;12.83;100.00
42591;BME280;28218;53.342;-6.216;2023-02-17T10:12:37;101739.72;;;12.87;100.00
42591;BME280;28218;53.342;-6.216;2023-02-17T10:15:09;101741.38;;;12.88;100.00
42591;BME280;28218;53.342;-6.216;2023-02-17T10:17:47;101749.31;;;12.88;100.00
42591;BME280;28218;53.342;-6.216;2023-02-17T10:20:21;101751.47;;;12.93;100.00
42591;BME280;28218;53.342;-6.216;2023-02-17T10:22:54;101767.34;;;12.93;100.00
42591;BME280;28218;53.342;-6.216;2023-02-17T10:25:39;101768.19;;;12.93;100.00
42591;BME280;28218;53.342;-6.216;2023-02-17T10:28:17;101772.81;;;12.91;100.00
42591;BME280;28218;53.342;-6.216;2023-02-17T10:30:56;101769.03;;;12.94;100.00
42591;BME280;28218;53.342;-6.216;2023-02-17T10:33:34;101757.66;;;13.01;100.00
42591;BME280;28218;53.342;-6.216;2023-02-17T10:36:11;101775.84;;;13.04;100.00
42591;BME280;28218;53.342;-6.216;2023-02-17T10:38:48;101774.56;;;13.09;100.00
42591;BME280;28218;53.342;-6.216;2023-02-17T10:41:22;101783.50;;;13.16;100.00
42591;BME280;28218;53.342;-6.216;2023-02-17T10:43:53;101784.22;;;13.26;100.00
42591;BME280;28218;53.342;-6.216;2023-02-17T10:46:27;101790.91;;;13.38;100.00
42591;BME280;28218;53.342;-6.216;2023-02-17T10:48:57;101797.72;;;13.49;100.00
42591;BME280;28218;53.342;-6.216;2023-02-17T10:51:28;101798.91;;;13.63;100.00
42591;BME280;28218;53.342;-6.216;2023-02-17T10:54:01;101795.28;;;13.72;100.00
42591;BME280;28218;53.342;-6.216;2023-02-17T10:56:34;101786.38;;;13.81;100.00
42591;BME280;28218;53.342;-6.216;2023-02-17T10:59:10;101797.16;;;13.79;100.00
42591;BME280;28218;53.342;-6.216;2023-02-17T11:01:41;101801.63;;;13.79;100.00
42591;BME280;28218;53.342;-6.216;2023-02-17T11:04:11;101806.09;;;13.78;100.00
42591;BME280;28218;53.342;-6.216;2023-02-17T11:06:41;101810.88;;;13.75;100.00
42591;BME280;28218;53.342;-6.216;2023-02-17T11:09:18;101812.84;;;13.73;100.00
42591;BME280;28218;53.342;-6.216;2023-02-17T11:11:57;101813.03;;;13.79;100.00
42591;BME280;28218;53.342;-6.216;2023-02-17T11:14:27;101818.16;;;13.81;100.00
42591;BME280;28218;53.342;-6.216;2023-02-17T11:16:58;101820.16;;;13.79;100.00
42591;BME280;28218;53.342;-6.216;2023-02-17T11:19:29;101841.66;;;13.76;100.00
42591;BME280;28218;53.342;-6.216;2023-02-17T11:22:01;101844.97;;;13.70;100.00
42591;BME280;28218;53.342;-6.216;2023-02-17T11:24:31;101864.81;;;13.66;100.00
42591;BME280;28218;53.342;-6.216;2023-02-17T11:27:04;101865.78;;;13.57;100.00
42591;BME280;28218;53.342;-6.216;2023-02-17T11:29:35;101877.84;;;13.51;100.00
42591;BME280;28218;53.342;-6.216;2023-02-17T11:32:05;101883.75;;;13.45;100.00
42591;BME280;28218;53.342;-6.216;2023-02-17T11:34:36;101887.69;;;13.41;100.00
42591;BME280;28218;53.342;-6.216;2023-02-17T11:37:18;101890.00;;;13.36;100.00
42591;BME280;28218;53.342;-6.216;2023-02-17T11:39:48;101883.22;;;13.33;100.00
42591;BME280;28218;53.342;-6.216;2023-02-17T11:42:21;101891.16;;;13.33;100.00
42591;BME280;28218;53.342;-6.216;2023-02-17T11:44:50;101878.56;;;13.27;100.00
42591;BME280;28218;53.342;-6.216;2023-02-17T11:47:29;101873.41;;;13.25;100.00
42591;BME280;28218;53.342;-6.216;2023-02-17T11:50:21;101886.09;;;13.22;100.00
42591;BME280;28218;53.342;-6.216;2023-02-17T11:53:19;101886.34;;;13.11;100.00
42591;BME280;28218;53.342;-6.216;2023-02-17T11:55:56;101886.75;;;12.98;100.00
42591;BME280;28218;53.342;-6.216;2023-02-17T11:58:40;101890.66;;;12.86;100.00
42591;BME280;28218;53.342;-6.216;2023-02-17T12:01:23;101897.25;;;12.82;100.00
42591;BME280;28218;53.342;-6.216;2023-02-17T12:04:23;101887.78;;;12.79;100.00
42591;BME280;28218;53.342;-6.216;2023-02-17T12:07:02;101898.00;;;12.74;100.00
42591;BME280;28218;53.342;-6.216;2023-02-17T12:09:40;101900.63;;;12.74;100.00
42591;BME280;28218;53.342;-6.216;2023-02-17T12:12:21;101888.25;;;12.74;100.00
42591;BME280;28218;53.342;-6.216;2023-02-17T12:15:02;101881.13;;;12.75;100.00
42591;BME280;28218;53.342;-6.216;2023-02-17T12:17:40;101884.31;;;12.78;100.00
42591;BME280;28218;53.342;-6.216;2023-02-17T12:20:29;101894.06;;;12.78;100.00
42591;BME280;28218;53.342;-6.216;2023-02-17T12:23:08;101892.88;;;12.72;100.00
42591;BME280;28218;53.342;-6.216;2023-02-17T12:25:44;101900.28;;;12.69;100.00
42591;BME280;28218;53.342;-6.216;2023-02-17T12:28:39;101899.97;;;12.72;100.00
42591;BME280;28218;53.342;-6.216;2023-02-17T12:31:17;101906.25;;;12.71;100.00
42591;BME280;28218;53.342;-6.216;2023-02-17T12:33:56;101900.97;;;12.71;100.00
42591;BME280;28218;53.342;-6.216;2023-02-17T12:36:29;101891.06;;;12.73;100.00
42591;BME280;28218;53.342;-6.216;2023-02-17T12:39:02;101895.34;;;12.74;100.00
42591;BME280;28218;53.342;-6.216;2023-02-17T12:41:34;101885.59;;;12.74;100.00
42591;BME280;28218;53.342;-6.216;2023-02-17T12:44:08;101882.50;;;12.79;100.00
42591;BME280;28218;53.342;-6.216;2023-02-17T12:46:42;101867.44;;;12.79;100.00
42591;BME280;28218;53.342;-6.216;2023-02-17T12:49:13;101871.97;;;12.87;100.00
42591;BME280;28218;53.342;-6.216;2023-02-17T12:51:47;101871.69;;;12.90;100.00
42591;BME280;28218;53.342;-6.216;2023-02-17T12:54:19;101867.78;;;13.02;100.00
42591;BME280;28218;53.342;-6.216;2023-02-17T12:56:58;101852.66;;;13.13;100.00